Rainham, United Kingdom
Current Conditions -  °F | °C
As of 8:20 AM on Thursday 29 Jan 2015 (Local Time) from EGLC Reporting Station
Few Clouds Few Clouds  
Wind Chill: 29°   Ceiling: Unl
Heat Index: 37°   Visibility: 6mi
Dew Point: 32°   Wind: 14mph
Humidity: 81%   Direction: 230°SW
Pressure: 29.21"   Gusts: NA
Location:  51.53°N, 0.19°E
Report Text: EGLC 290820Z 23012KT 9999 R09/1500 FEW026 03/M00 Q0989
Loading
Personal Weather Stations






























Interactive Weather Map New forecast layout! Learn more

10-Day Weather Forecast

Advertisements
Track Severe Weather on mobile